Terminal Aerodrome Forecast
Issued by NWS North Platte, NE

Home | Current Version | Previous Version | Text Only | Print | Product List | Glossary On
Versions: 1 2 3 4 5 6 7 8 9 10 11 12 13 14 15 16 17 18 19
000
FTUS43 KLBF 211720
TAFLBF
TAF
KLBF 211720Z 2118/2218 10010KT P6SM VCSH OVC020
     FM212100 10010KT P6SM OVC030
     FM220200 10007KT P6SM OVC035
     FM220600 VRB04KT 3SM BR OVC010
      TEMPO 2210/2213 VRB04KT 1SM BR BKN005
     FM221400 VRB06KT 5SM BR OVC050
     FM221600 VRB06KT P6SM BKN050=

USA.gov is the U.S. government's official web portal to all federal, state and local government web resources and services.